Time;durP1;ratioP1;P1;durP2;ratioP2;P2;SDS_P1;SDS_P2;PMS_P1;PMS_P2;Temp;Humidity;BMP_temperature;BMP_pressure;BME280_temperature;BME280_humidity;BME280_pressure;Samples;Min_cycle;Max_cycle;Signal;HPM_P1;HPM_P2
2021/08/08 00:01:15;;;;;;;2.58;0.28;;;16.80;82.60;;;;;;4974617;28;20042;-63
2021/08/08 00:03:41;;;;;;;0.65;0.30;;;16.80;82.50;;;;;;4971414;28;20027;-63
2021/08/08 00:06:07;;;;;;;2.38;0.30;;;16.80;82.40;;;;;;4990726;28;20577;-63
2021/08/08 00:08:33;;;;;;;2.70;0.50;;;16.70;82.50;;;;;;4970384;28;20086;-63
2021/08/08 00:10:59;;;;;;;1.58;0.40;;;16.70;82.70;;;;;;4984066;28;20034;-63
2021/08/08 00:13:26;;;;;;;2.13;0.30;;;16.70;82.60;;;;;;4973060;28;20056;-63
2021/08/08 00:15:52;;;;;;;1.05;0.30;;;16.70;82.70;;;;;;4973034;28;20054;-63
2021/08/08 00:18:19;;;;;;;2.70;0.40;;;16.60;82.70;;;;;;4971904;28;20042;-63
2021/08/08 00:20:44;;;;;;;1.40;0.30;;;16.60;82.80;;;;;;4977346;28;20038;-62
2021/08/08 00:23:10;;;;;;;0.55;0.30;;;16.60;83.00;;;;;;4972086;28;20035;-63
2021/08/08 00:25:36;;;;;;;0.70;0.40;;;16.60;83.00;;;;;;4970758;28;20335;-63
2021/08/08 00:28:02;;;;;;;1.13;0.38;;;16.60;83.10;;;;;;4974899;28;20057;-63
2021/08/08 00:30:28;;;;;;;3.83;0.50;;;16.60;83.10;;;;;;4972871;28;20093;-63
2021/08/08 00:32:54;;;;;;;0.45;0.45;;;16.60;83.20;;;;;;4972893;28;20046;-63
2021/08/08 00:35:20;;;;;;;2.20;0.60;;;16.50;83.30;;;;;;4974424;28;20026;-63
2021/08/08 00:37:48;;;;;;;0.82;0.30;;;16.50;83.30;;;;;;4988284;28;20611;-63
2021/08/08 00:40:15;;;;;;;0.60;0.35;;;16.60;83.30;;;;;;4988559;28;20026;-63
2021/08/08 00:42:46;;;;;;;3.78;0.30;;;16.50;83.20;;;;;;4971618;28;20031;-63
2021/08/08 00:45:14;;;;;;;0.50;0.40;;;16.60;83.20;;;;;;4972021;28;20033;-62
2021/08/08 00:47:40;;;;;;;1.98;0.32;;;16.50;83.10;;;;;;4966786;28;20077;-62
2021/08/08 00:50:05;;;;;;;1.95;0.40;;;16.50;83.10;;;;;;4971693;28;20165;-62
2021/08/08 00:52:33;;;;;;;0.63;0.40;;;16.50;83.20;;;;;;4974342;28;20035;-62
2021/08/08 00:54:58;;;;;;;2.15;0.32;;;16.50;83.30;;;;;;4970972;28;20043;-63
2021/08/08 00:57:24;;;;;;;2.33;0.40;;;16.50;83.30;;;;;;4971400;28;20584;-62
2021/08/08 00:59:50;;;;;;;2.15;0.40;;;16.50;83.30;;;;;;4970064;28;20026;-63
2021/08/08 01:02:19;;;;;;;4.65;0.63;;;16.50;83.20;;;;;;4966162;28;20088;-62
2021/08/08 01:04:59;;;;;;;0.68;0.47;;;16.50;83.30;;;;;;4970958;28;20057;-63
2021/08/08 01:07:31;;;;;;;2.70;0.40;;;16.50;83.40;;;;;;4972917;28;20049;-62
2021/08/08 01:10:00;;;;;;;1.70;0.40;;;16.40;83.30;;;;;;4971396;28;20030;-62
2021/08/08 01:12:27;;;;;;;1.23;0.30;;;16.40;83.30;;;;;;4966992;28;20057;-63
2021/08/08 01:14:54;;;;;;;1.85;0.60;;;16.40;83.30;;;;;;4971215;28;20039;-63
2021/08/08 01:17:21;;;;;;;0.40;0.40;;;16.40;83.40;;;;;;4972247;28;20034;-62
2021/08/08 01:19:54;;;;;;;1.58;0.30;;;16.40;83.50;;;;;;4969819;28;20422;-62
2021/08/08 01:22:21;;;;;;;1.55;0.40;;;16.40;83.70;;;;;;4970797;28;20504;-62
2021/08/08 01:24:48;;;;;;;0.77;0.40;;;16.40;83.60;;;;;;4971967;28;20038;-62
2021/08/08 01:27:14;;;;;;;0.40;0.40;;;16.30;83.60;;;;;;4974761;28;20038;-63
2021/08/08 01:29:40;;;;;;;1.02;0.40;;;16.40;83.60;;;;;;4971462;28;20042;-62
2021/08/08 01:32:06;;;;;;;0.30;0.30;;;16.40;83.70;;;;;;4970508;28;20471;-63
2021/08/08 01:34:31;;;;;;;0.95;0.40;;;16.30;83.60;;;;;;4971162;28;20093;-63
2021/08/08 01:36:57;;;;;;;2.55;0.40;;;16.30;83.60;;;;;;4973065;28;20042;-63
2021/08/08 01:39:23;;;;;;;0.70;0.50;;;16.30;83.60;;;;;;4971620;28;20035;-63
2021/08/08 01:41:56;;;;;;;0.55;0.35;;;16.30;83.80;;;;;;4986641;28;20418;-63
2021/08/08 01:44:25;;;;;;;1.40;0.40;;;16.30;83.90;;;;;;4990441;28;20070;-63
2021/08/08 01:46:56;;;;;;;0.80;0.40;;;16.30;84.00;;;;;;4969495;28;20053;-63
2021/08/08 01:49:26;;;;;;;1.73;0.40;;;16.30;83.90;;;;;;4986456;28;20502;-62
2021/08/08 01:51:52;;;;;;;2.03;0.30;;;16.30;83.90;;;;;;4973280;28;20034;-63
2021/08/08 01:54:19;;;;;;;1.27;0.50;;;16.30;83.80;;;;;;4974281;28;20699;-63
2021/08/08 01:56:46;;;;;;;2.17;0.30;;;16.30;83.70;;;;;;4973395;28;20088;-62
2021/08/08 01:59:13;;;;;;;1.98;0.50;;;16.30;83.70;;;;;;4971562;28;20035;-63
2021/08/08 02:01:39;;;;;;;0.30;0.30;;;16.30;83.70;;;;;;4968480;28;20096;-63
2021/08/08 02:04:14;;;;;;;3.42;0.30;;;16.30;83.70;;;;;;4973982;28;20043;-63
2021/08/08 02:06:40;;;;;;;0.85;0.45;;;16.30;83.80;;;;;;4970898;28;20038;-62
2021/08/08 02:09:06;;;;;;;1.50;0.50;;;16.30;83.60;;;;;;4975936;28;20041;-63
2021/08/08 02:11:32;;;;;;;0.63;0.38;;;16.30;83.60;;;;;;4971849;28;20050;-63
2021/08/08 02:13:58;;;;;;;1.00;0.57;;;16.30;83.60;;;;;;4992720;28;20089;-63
2021/08/08 02:16:23;;;;;;;0.55;0.40;;;16.30;83.60;;;;;;4972208;28;20043;-63
2021/08/08 02:18:49;;;;;;;1.88;0.30;;;16.30;83.60;;;;;;4980040;28;20043;-62
2021/08/08 02:21:15;;;;;;;2.13;0.40;;;16.30;83.60;;;;;;4975204;28;20065;-62
2021/08/08 02:23:40;;;;;;;1.38;0.40;;;16.30;83.60;;;;;;4981084;28;20065;-63
2021/08/08 02:26:07;;;;;;;1.92;0.30;;;16.30;83.70;;;;;;4975544;28;20697;-63
2021/08/08 02:28:32;;;;;;;1.13;0.40;;;16.30;83.60;;;;;;4975543;28;20038;-63
2021/08/08 02:30:58;;;;;;;0.65;0.30;;;16.30;83.60;;;;;;4988499;28;20039;-63
2021/08/08 02:33:24;;;;;;;0.57;0.32;;;16.30;83.60;;;;;;4975155;28;20038;-59
2021/08/08 02:35:49;;;;;;;0.70;0.35;;;16.30;83.60;;;;;;4973210;28;20026;-63
2021/08/08 02:38:15;;;;;;;0.32;0.30;;;16.30;83.60;;;;;;4977522;28;20034;-62
2021/08/08 02:40:40;;;;;;;3.67;0.50;;;16.30;83.50;;;;;;4990003;28;20053;-63
2021/08/08 02:43:06;;;;;;;0.40;0.30;;;16.30;83.60;;;;;;4973268;28;20062;-63
2021/08/08 02:45:32;;;;;;;1.65;0.40;;;16.30;83.60;;;;;;4976326;28;20035;-63
2021/08/08 02:47:58;;;;;;;1.70;0.30;;;16.30;83.60;;;;;;4975694;28;20145;-63
2021/08/08 02:50:23;;;;;;;3.17;0.40;;;16.30;83.50;;;;;;4974162;28;20035;-62
2021/08/08 02:52:53;;;;;;;1.05;0.50;;;16.30;83.50;;;;;;4972970;28;20196;-65
2021/08/08 02:55:19;;;;;;;0.85;0.40;;;16.30;83.40;;;;;;4978141;28;20053;-65
2021/08/08 02:57:44;;;;;;;1.48;0.30;;;16.30;83.30;;;;;;4973518;28;20034;-65
2021/08/08 03:00:11;;;;;;;1.10;0.28;;;16.30;83.30;;;;;;4986854;28;20458;-66
2021/08/08 03:02:36;;;;;;;4.63;0.35;;;16.20;83.30;;;;;;4971545;28;20037;-66
2021/08/08 03:05:02;;;;;;;6.85;0.40;;;16.30;83.20;;;;;;4975010;28;20061;-65
2021/08/08 03:07:28;;;;;;;0.50;0.50;;;16.30;83.10;;;;;;4974464;28;20045;-65
2021/08/08 03:09:53;;;;;;;0.85;0.30;;;16.30;83.10;;;;;;4975488;28;20221;-65
2021/08/08 03:12:19;;;;;;;1.75;0.30;;;16.30;82.90;;;;;;4971102;28;20046;-66
2021/08/08 03:14:45;;;;;;;0.95;0.30;;;16.30;82.90;;;;;;4971883;28;20034;-65
2021/08/08 03:17:10;;;;;;;0.30;0.30;;;16.30;82.80;;;;;;4972890;28;20042;-65
2021/08/08 03:19:36;;;;;;;0.28;0.20;;;16.30;82.80;;;;;;4973579;28;20121;-66
2021/08/08 03:22:02;;;;;;;1.42;0.30;;;16.30;82.70;;;;;;4973122;28;20113;-64
2021/08/08 03:24:28;;;;;;;0.75;0.35;;;16.30;82.70;;;;;;4973146;28;20038;-66
2021/08/08 03:26:53;;;;;;;0.90;0.40;;;16.30;82.70;;;;;;4992276;28;20034;-66
2021/08/08 03:29:19;;;;;;;1.63;0.50;;;16.30;82.70;;;;;;4976014;28;20042;-63
2021/08/08 03:31:44;;;;;;;0.88;0.40;;;16.30;82.70;;;;;;4972908;28;20106;-63
2021/08/08 03:34:10;;;;;;;0.30;0.30;;;16.30;82.70;;;;;;4978480;28;20038;-63
2021/08/08 03:36:36;;;;;;;0.68;0.38;;;16.30;82.70;;;;;;4988777;28;20030;-63
2021/08/08 03:39:01;;;;;;;2.90;0.40;;;16.30;82.70;;;;;;4974446;28;20031;-63
2021/08/08 03:41:27;;;;;;;5.70;0.45;;;16.30;82.60;;;;;;4976027;28;20038;-62
2021/08/08 03:43:52;;;;;;;1.50;0.43;;;16.30;82.70;;;;;;4973299;28;20090;-63
2021/08/08 03:46:18;;;;;;;0.73;0.30;;;16.30;82.60;;;;;;4982057;28;20117;-62
2021/08/08 03:48:44;;;;;;;1.77;0.40;;;16.30;82.50;;;;;;4975822;28;20114;-61
2021/08/08 03:51:09;;;;;;;2.45;0.40;;;16.30;82.60;;;;;;4976707;28;20030;-63
2021/08/08 03:53:35;;;;;;;1.92;0.25;;;16.30;82.50;;;;;;4973704;28;20053;-63
2021/08/08 03:56:01;;;;;;;1.00;0.45;;;16.30;82.50;;;;;;4975383;28;20094;-63
2021/08/08 03:58:30;;;;;;;1.13;0.47;;;16.30;82.60;;;;;;4986881;28;20069;-63
2021/08/08 04:01:00;;;;;;;0.60;0.40;;;16.20;82.60;;;;;;4969574;28;20034;-63
2021/08/08 04:03:28;;;;;;;2.88;0.40;;;16.30;82.60;;;;;;4972171;28;20046;-65
2021/08/08 04:05:54;;;;;;;0.82;0.40;;;16.20;82.60;;;;;;4979368;28;20022;-65
2021/08/08 04:08:19;;;;;;;30.42;17.20;;;16.20;82.60;;;;;;4977620;28;20050;-62
2021/08/08 04:10:45;;;;;;;55.33;28.20;;;16.20;82.60;;;;;;4970089;28;20034;-63
2021/08/08 04:13:11;;;;;;;28.50;16.63;;;16.20;82.60;;;;;;4974838;28;20034;-63
2021/08/08 04:15:36;;;;;;;9.10;5.43;;;16.20;82.70;;;;;;4970501;28;20086;-63
2021/08/08 04:18:02;;;;;;;2.30;1.25;;;16.20;82.70;;;;;;4971564;28;20030;-63
2021/08/08 04:20:28;;;;;;;4.13;1.30;;;16.20;82.70;;;;;;4971456;28;20038;-63
2021/08/08 04:22:53;;;;;;;2.33;1.25;;;16.20;82.80;;;;;;4971356;28;20033;-63
2021/08/08 04:25:19;;;;;;;1.95;0.73;;;16.20;82.90;;;;;;4973274;28;20070;-63
2021/08/08 04:27:44;;;;;;;0.68;0.55;;;16.20;82.90;;;;;;4979706;28;20553;-63
2021/08/08 04:30:11;;;;;;;2.35;1.30;;;16.30;82.90;;;;;;4981575;28;20382;-63
2021/08/08 04:32:36;;;;;;;21.00;12.50;;;16.30;82.90;;;;;;4968678;28;20031;-62
2021/08/08 04:35:02;;;;;;;13.48;9.75;;;16.30;83.00;;;;;;4969085;28;20915;-63
2021/08/08 04:37:28;;;;;;;5.47;3.00;;;16.30;83.00;;;;;;4973080;28;20035;-62
2021/08/08 04:39:53;;;;;;;2.60;2.40;;;16.30;83.00;;;;;;4972717;28;20034;-62
2021/08/08 04:42:19;;;;;;;2.30;2.10;;;16.30;83.00;;;;;;4975388;28;20096;-63
2021/08/08 04:44:45;;;;;;;4.47;3.17;;;16.40;83.10;;;;;;4972542;28;20053;-63
2021/08/08 04:47:10;;;;;;;5.25;4.85;;;16.30;83.10;;;;;;4971910;28;20480;-63
2021/08/08 04:49:36;;;;;;;4.40;3.40;;;16.40;83.20;;;;;;4971084;28;20053;-62
2021/08/08 04:52:03;;;;;;;2.40;2.20;;;16.40;83.20;;;;;;4988027;28;20031;-64
2021/08/08 04:54:29;;;;;;;5.18;0.80;;;16.50;83.30;;;;;;4975760;28;20101;-65
2021/08/08 04:56:55;;;;;;;0.50;0.32;;;16.40;83.10;;;;;;4972003;28;20509;-65
2021/08/08 04:59:20;;;;;;;1.08;0.50;;;16.50;83.00;;;;;;4989242;28;20081;-65
2021/08/08 05:01:46;;;;;;;0.50;0.40;;;16.50;82.90;;;;;;4968990;28;20038;-65
2021/08/08 05:04:11;;;;;;;1.58;0.47;;;16.50;82.80;;;;;;4971057;28;20089;-65
2021/08/08 05:06:37;;;;;;;2.47;0.50;;;16.50;82.80;;;;;;4970929;28;20410;-65
2021/08/08 05:09:03;;;;;;;2.65;0.65;;;16.50;82.90;;;;;;4972611;28;20066;-65
2021/08/08 05:11:29;;;;;;;2.15;0.80;;;16.50;82.90;;;;;;4968189;28;20038;-65
2021/08/08 05:13:55;;;;;;;5.20;2.50;;;16.50;82.90;;;;;;4978794;28;20034;-66
2021/08/08 05:16:21;;;;;;;4.70;3.25;;;16.50;82.90;;;;;;4985821;28;20525;-65
2021/08/08 05:18:46;;;;;;;2.88;1.23;;;16.40;82.90;;;;;;4969884;28;20043;-65
2021/08/08 05:21:12;;;;;;;2.58;0.65;;;16.50;83.00;;;;;;4971428;28;20030;-65
2021/08/08 05:23:39;;;;;;;1.52;0.52;;;16.40;83.00;;;;;;4970744;28;20073;-66
2021/08/08 05:26:04;;;;;;;0.60;0.50;;;16.40;83.10;;;;;;4970749;28;20060;-66
2021/08/08 05:28:30;;;;;;;5.40;4.97;;;16.50;83.30;;;;;;4977394;28;20041;-65
2021/08/08 05:30:56;;;;;;;1.60;1.50;;;16.50;83.40;;;;;;4973274;28;20070;-66
2021/08/08 05:33:22;;;;;;;4.40;1.10;;;16.50;83.40;;;;;;4970809;28;20038;-64
2021/08/08 05:35:50;;;;;;;1.17;1.08;;;16.50;83.60;;;;;;4973918;28;20521;-65
2021/08/08 05:38:16;;;;;;;3.08;0.70;;;16.50;83.40;;;;;;4990388;28;20129;-65
2021/08/08 05:40:42;;;;;;;3.17;1.63;;;16.60;83.40;;;;;;4970640;28;20180;-65
2021/08/08 05:43:07;;;;;;;0.90;0.90;;;16.60;83.50;;;;;;4971523;28;20462;-65
2021/08/08 05:45:33;;;;;;;1.35;0.93;;;16.60;83.50;;;;;;4976681;28;20027;-65
2021/08/08 05:47:59;;;;;;;2.80;0.93;;;16.60;83.60;;;;;;4974693;28;20047;-66
2021/08/08 05:50:24;;;;;;;1.70;0.80;;;16.70;83.60;;;;;;4974009;28;20042;-65
2021/08/08 05:52:51;;;;;;;1.50;0.70;;;16.70;83.50;;;;;;4978890;28;20056;-65
2021/08/08 05:55:18;;;;;;;1.33;1.10;;;16.80;83.60;;;;;;4972614;28;20101;-65
2021/08/08 05:57:44;;;;;;;4.30;1.15;;;16.80;83.60;;;;;;4973799;28;20035;-65
2021/08/08 06:00:10;;;;;;;2.63;1.30;;;16.80;83.60;;;;;;4990828;28;20027;-65
2021/08/08 06:02:36;;;;;;;3.88;2.10;;;16.80;83.40;;;;;;4967322;28;20032;-66
2021/08/08 06:05:02;;;;;;;2.20;0.80;;;16.90;83.40;;;;;;4978676;28;20596;-65
2021/08/08 06:07:28;;;;;;;1.38;0.50;;;16.90;83.30;;;;;;4975943;28;20041;-65
2021/08/08 06:09:54;;;;;;;1.90;0.65;;;16.90;83.10;;;;;;4979294;28;20034;-66
2021/08/08 06:12:20;;;;;;;1.27;0.40;;;17.00;83.00;;;;;;4981055;28;20295;-66
2021/08/08 06:14:45;;;;;;;0.98;0.70;;;17.00;82.90;;;;;;4985484;28;20524;-65
2021/08/08 06:17:11;;;;;;;0.70;0.60;;;17.00;82.90;;;;;;4979007;28;20058;-63
2021/08/08 06:19:37;;;;;;;1.48;0.40;;;17.00;82.70;;;;;;4970088;28;20406;-63
2021/08/08 06:22:03;;;;;;;0.68;0.60;;;17.00;82.70;;;;;;4990183;28;20062;-63
2021/08/08 06:24:29;;;;;;;1.05;0.50;;;17.00;82.80;;;;;;4972892;28;20122;-63
2021/08/08 06:26:54;;;;;;;2.70;0.57;;;17.00;82.90;;;;;;4972894;28;20122;-63
2021/08/08 06:29:20;;;;;;;0.30;0.30;;;17.10;83.00;;;;;;4973819;28;20042;-63
2021/08/08 06:31:46;;;;;;;2.33;0.85;;;17.10;82.90;;;;;;4980013;28;20042;-63
2021/08/08 06:34:11;;;;;;;0.70;0.50;;;17.10;82.70;;;;;;4972446;28;20035;-63
2021/08/08 06:36:37;;;;;;;1.92;0.60;;;17.10;82.70;;;;;;4978857;28;20047;-63
2021/08/08 06:39:06;;;;;;;1.33;0.85;;;17.20;82.90;;;;;;4974609;28;20050;-63
2021/08/08 06:41:33;;;;;;;2.40;0.60;;;17.20;82.90;;;;;;4973775;28;20166;-63
2021/08/08 06:43:59;;;;;;;1.70;0.77;;;17.30;82.90;;;;;;4975048;28;20526;-63
2021/08/08 06:46:25;;;;;;;2.38;1.00;;;17.30;82.70;;;;;;4975736;28;20060;-63
2021/08/08 06:48:50;;;;;;;1.10;1.00;;;17.40;82.60;;;;;;4972312;28;20408;-63
2021/08/08 06:51:16;;;;;;;1.75;0.75;;;17.40;82.70;;;;;;4973819;28;20038;-63
2021/08/08 06:53:42;;;;;;;1.05;0.80;;;17.50;82.70;;;;;;4971564;28;20654;-63
2021/08/08 06:56:07;;;;;;;0.50;0.50;;;17.50;82.70;;;;;;4972035;28;20041;-63
2021/08/08 06:58:33;;;;;;;2.33;0.80;;;17.50;82.40;;;;;;4971176;28;20039;-63
2021/08/08 07:00:58;;;;;;;1.10;0.45;;;17.60;82.30;;;;;;4971594;28;20035;-63
2021/08/08 07:03:24;;;;;;;1.63;0.60;;;17.70;82.30;;;;;;4973399;28;20093;-65
2021/08/08 07:05:50;;;;;;;2.05;0.70;;;17.70;82.20;;;;;;4973429;28;20035;-64
2021/08/08 07:08:15;;;;;;;1.33;0.60;;;17.70;82.00;;;;;;4975856;28;20030;-63
2021/08/08 07:10:41;;;;;;;1.05;0.57;;;17.70;81.80;;;;;;4969106;28;20034;-63
2021/08/08 07:13:07;;;;;;;1.92;1.15;;;17.70;81.80;;;;;;4974762;28;20670;-63
2021/08/08 07:15:32;;;;;;;3.30;1.98;;;17.80;81.70;;;;;;4974565;28;20031;-63
2021/08/08 07:17:58;;;;;;;2.65;1.10;;;17.80;81.80;;;;;;4979153;28;20619;-63
2021/08/08 07:20:24;;;;;;;1.10;0.77;;;17.90;81.90;;;;;;4973105;28;20375;-63
2021/08/08 07:22:49;;;;;;;1.20;0.90;;;17.90;81.80;;;;;;4975992;28;20027;-64
2021/08/08 07:25:15;;;;;;;1.20;0.68;;;17.90;81.70;;;;;;4979831;28;20548;-63
2021/08/08 07:27:41;;;;;;;1.98;1.30;;;18.00;81.70;;;;;;4991033;28;20062;-63
2021/08/08 07:30:07;;;;;;;2.17;0.93;;;18.00;81.70;;;;;;4983295;28;20070;-63
2021/08/08 07:32:33;;;;;;;1.98;1.42;;;18.00;81.40;;;;;;4976504;28;20768;-63
2021/08/08 07:35:00;;;;;;;2.80;1.63;;;18.10;81.30;;;;;;4979112;28;20065;-63
2021/08/08 07:37:25;;;;;;;1.98;1.65;;;18.10;81.30;;;;;;4980464;28;20674;-63
2021/08/08 07:39:51;;;;;;;2.25;1.50;;;18.20;81.10;;;;;;4972154;28;20042;-63
2021/08/08 07:42:17;;;;;;;2.42;1.42;;;18.20;80.80;;;;;;4971610;28;20649;-63
2021/08/08 07:44:42;;;;;;;3.88;2.00;;;18.20;80.60;;;;;;4975056;28;20042;-63
2021/08/08 07:47:08;;;;;;;1.35;0.93;;;18.30;80.40;;;;;;4977038;28;20046;-63
2021/08/08 07:49:33;;;;;;;1.77;0.80;;;18.30;80.50;;;;;;4972650;28;20165;-64
2021/08/08 07:51:59;;;;;;;1.13;0.57;;;18.40;80.80;;;;;;4970025;28;20039;-64
2021/08/08 07:54:25;;;;;;;2.65;0.60;;;18.40;80.80;;;;;;4971603;28;20516;-63
2021/08/08 07:56:50;;;;;;;1.92;1.00;;;18.50;80.20;;;;;;4969416;28;20053;-64
2021/08/08 07:59:16;;;;;;;1.83;0.98;;;18.50;79.90;;;;;;4984017;28;20194;-64
2021/08/08 08:01:42;;;;;;;2.53;1.00;;;18.50;79.90;;;;;;4971363;28;20564;-64
2021/08/08 08:04:08;;;;;;;2.35;0.95;;;18.60;79.70;;;;;;4975401;28;20043;-64
2021/08/08 08:06:34;;;;;;;3.35;1.95;;;18.60;79.40;;;;;;4966281;28;20039;-63
2021/08/08 08:09:00;;;;;;;5.65;2.30;;;18.70;79.40;;;;;;4975923;28;20073;-64
2021/08/08 08:11:25;;;;;;;2.20;0.93;;;18.70;79.30;;;;;;4968283;28;20514;-63
2021/08/08 08:13:51;;;;;;;1.98;1.00;;;18.70;79.30;;;;;;4978269;28;20038;-64
2021/08/08 08:16:17;;;;;;;1.67;0.82;;;18.80;79.30;;;;;;4970220;28;20070;-64
2021/08/08 08:18:42;;;;;;;2.28;1.13;;;18.80;79.10;;;;;;4975730;28;20116;-64
2021/08/08 08:21:08;;;;;;;2.08;1.20;;;18.90;78.70;;;;;;4979182;28;20038;-64
2021/08/08 08:23:34;;;;;;;3.05;1.50;;;18.80;78.30;;;;;;4965409;28;20043;-63
2021/08/08 08:25:59;;;;;;;3.47;0.90;;;18.80;78.40;;;;;;4953294;28;20089;-64
2021/08/08 08:28:29;;;;;;;0.70;0.50;;;18.90;78.90;;;;;;4970488;28;20039;-63
2021/08/08 08:30:58;;;;;;;2.75;1.30;;;18.90;78.90;;;;;;4959221;28;21852;-64
2021/08/08 08:33:25;;;;;;;1.80;1.10;;;19.00;78.30;;;;;;4962100;28;20524;-64
2021/08/08 08:35:51;;;;;;;2.20;1.30;;;19.00;78.40;;;;;;4958578;28;20062;-64
2021/08/08 08:38:17;;;;;;;2.05;0.60;;;19.10;78.40;;;;;;4952438;28;20034;-64
2021/08/08 08:40:43;;;;;;;5.70;0.80;;;19.10;78.50;;;;;;4955299;28;20042;-64
2021/08/08 08:43:10;;;;;;;1.77;0.73;;;19.20;78.20;;;;;;4955493;28;20058;-64
2021/08/08 08:45:45;;;;;;;0.90;0.52;;;19.20;77.70;;;;;;4956391;28;21082;-64
2021/08/08 08:48:16;;;;;;;3.83;0.70;;;19.30;77.00;;;;;;4959314;28;21270;-64
2021/08/08 08:50:42;;;;;;;1.13;0.60;;;19.30;77.00;;;;;;4965412;28;20105;-65
2021/08/08 08:53:10;;;;;;;1.20;0.57;;;19.30;76.90;;;;;;4954498;28;20130;-64
2021/08/08 08:55:37;;;;;;;1.27;0.52;;;19.40;76.40;;;;;;4967947;28;20027;-64
2021/08/08 08:58:03;;;;;;;1.55;0.80;;;19.40;76.30;;;;;;4961539;28;20030;-63
2021/08/08 09:00:28;;;;;;;3.17;0.70;;;19.40;76.60;;;;;;4956370;28;20042;-64
2021/08/08 09:02:54;;;;;;;4.60;0.73;;;19.50;76.30;;;;;;4958238;28;20376;-64
2021/08/08 09:05:21;;;;;;;1.45;0.80;;;19.60;75.90;;;;;;4960447;28;20043;-64
2021/08/08 09:07:47;;;;;;;2.00;1.05;;;19.60;75.80;;;;;;4957889;28;20039;-64
2021/08/08 09:10:14;;;;;;;8.05;4.15;;;19.70;75.00;;;;;;4954320;28;20490;-63
2021/08/08 09:12:40;;;;;;;3.67;1.42;;;19.70;73.80;;;;;;4954265;28;20038;-65
2021/08/08 09:15:08;;;;;;;1.25;0.70;;;19.70;73.70;;;;;;4955728;28;20034;-64
2021/08/08 09:17:38;;;;;;;2.58;0.57;;;19.80;73.70;;;;;;4952581;28;20125;-64
2021/08/08 09:20:08;;;;;;;4.20;1.50;;;19.80;72.80;;;;;;4978645;28;20464;-64
2021/08/08 09:22:35;;;;;;;3.08;1.13;;;19.80;72.50;;;;;;4954383;28;20125;-63
2021/08/08 09:25:00;;;;;;;1.10;0.60;;;19.90;72.30;;;;;;4961449;28;20085;-64
2021/08/08 09:27:35;;;;;;;0.60;0.40;;;19.90;71.80;;;;;;4971572;28;20262;-64
2021/08/08 09:30:04;;;;;;;1.10;0.73;;;19.90;70.40;;;;;;4979156;28;20089;-64
2021/08/08 09:32:35;;;;;;;2.58;1.38;;;19.90;70.70;;;;;;4978944;28;20035;-64
2021/08/08 09:35:13;;;;;;;2.63;1.40;;;19.90;70.00;;;;;;4976681;28;20037;-64
2021/08/08 09:37:39;;;;;;;0.85;0.50;;;19.90;69.90;;;;;;4992755;28;20426;-64
2021/08/08 09:40:14;;;;;;;1.50;0.77;;;19.90;70.90;;;;;;4978903;28;20038;-65
2021/08/08 09:42:45;;;;;;;1.20;0.52;;;19.90;70.30;;;;;;4978003;28;20038;-65
2021/08/08 09:45:14;;;;;;;1.85;0.70;;;19.90;70.90;;;;;;4978541;28;20042;-64
2021/08/08 09:47:48;;;;;;;1.10;0.80;;;19.90;71.40;;;;;;4973767;28;20045;-64
2021/08/08 09:50:19;;;;;;;1.30;0.90;;;19.90;71.50;;;;;;4979506;28;20030;-64
2021/08/08 09:52:54;;;;;;;2.85;2.15;;;19.90;71.80;;;;;;4976947;28;20041;-64
2021/08/08 09:55:34;;;;;;;2.65;0.88;;;19.90;72.20;;;;;;4979573;28;20042;-64
2021/08/08 09:58:02;;;;;;;3.92;0.80;;;19.90;72.60;;;;;;4981371;28;20039;-64
2021/08/08 10:00:38;;;;;;;1.10;0.60;;;19.90;72.80;;;;;;4978740;28;20055;-64
2021/08/08 10:03:06;;;;;;;1.67;0.50;;;19.90;73.20;;;;;;4975905;28;20032;-64
2021/08/08 10:05:34;;;;;;;2.40;0.40;;;19.90;72.60;;;;;;4975600;28;20502;-64
2021/08/08 10:08:07;;;;;;;2.00;0.65;;;19.90;73.10;;;;;;4979327;28;20057;-64
2021/08/08 10:10:35;;;;;;;0.93;0.47;;;19.90;73.30;;;;;;4977095;28;20031;-64
2021/08/08 10:13:19;;;;;;;1.13;0.50;;;19.90;73.30;;;;;;4979178;28;20037;-64
2021/08/08 10:15:46;;;;;;;1.45;0.57;;;20.00;73.00;;;;;;4986265;28;20035;-64
2021/08/08 10:18:14;;;;;;;1.60;1.00;;;20.00;73.70;;;;;;4986197;28;20034;-64
2021/08/08 10:20:40;;;;;;;2.22;0.95;;;20.10;73.30;;;;;;4986247;28;20117;-64
2021/08/08 10:23:11;;;;;;;2.17;0.68;;;20.10;73.20;;;;;;4986378;28;20401;-65
2021/08/08 10:25:38;;;;;;;1.52;0.60;;;20.20;72.80;;;;;;4985746;28;20034;-64
2021/08/08 10:28:07;;;;;;;2.50;0.95;;;20.30;72.90;;;;;;5000421;28;20038;-65
2021/08/08 10:30:34;;;;;;;1.38;0.70;;;20.30;72.30;;;;;;4987450;28;20035;-64
2021/08/08 10:33:05;;;;;;;1.42;0.50;;;20.40;72.10;;;;;;4987846;28;20077;-64
2021/08/08 10:35:45;;;;;;;1.63;0.55;;;20.50;71.80;;;;;;4988768;28;20513;-64
2021/08/08 10:38:13;;;;;;;1.27;0.90;;;20.50;72.20;;;;;;4989204;28;20062;-65
2021/08/08 10:40:40;;;;;;;1.08;0.70;;;20.50;72.10;;;;;;4988620;28;20081;-64
2021/08/08 10:43:07;;;;;;;0.82;0.60;;;20.60;71.70;;;;;;4988913;28;20034;-64
2021/08/08 10:45:35;;;;;;;3.25;1.10;;;20.60;71.30;;;;;;4989218;28;20045;-65
2021/08/08 10:48:03;;;;;;;1.77;0.70;;;20.70;70.70;;;;;;4988620;28;20034;-64
2021/08/08 10:50:43;;;;;;;1.38;0.60;;;20.70;70.80;;;;;;4989169;28;20046;-65
2021/08/08 10:53:27;;;;;;;1.45;0.70;;;20.70;69.40;;;;;;4989804;28;20037;-64
2021/08/08 10:56:24;;;;;;;1.15;0.50;;;20.80;68.60;;;;;;4988172;28;20043;-64
2021/08/08 10:58:50;;;;;;;1.75;0.60;;;20.80;68.80;;;;;;4986851;28;20037;-64
2021/08/08 11:01:22;;;;;;;0.85;0.52;;;20.80;69.00;;;;;;5004763;28;20026;-64
2021/08/08 11:03:59;;;;;;;1.85;0.50;;;20.80;68.60;;;;;;4985917;28;20039;-64
2021/08/08 11:06:26;;;;;;;1.02;0.57;;;20.80;68.80;;;;;;4981702;28;20302;-64
2021/08/08 11:08:53;;;;;;;1.70;0.80;;;20.80;69.30;;;;;;4985112;28;20984;-65
2021/08/08 11:11:31;;;;;;;1.85;0.65;;;20.80;69.70;;;;;;4995586;28;20070;-64
2021/08/08 11:14:14;;;;;;;1.40;0.50;;;20.90;70.30;;;;;;4984065;28;20042;-64
2021/08/08 11:16:43;;;;;;;1.25;0.77;;;20.90;69.90;;;;;;4991544;28;20085;-65
2021/08/08 11:19:09;;;;;;;1.35;0.70;;;20.90;69.70;;;;;;4985048;28;20039;-64
2021/08/08 11:21:35;;;;;;;2.13;0.95;;;20.90;69.70;;;;;;4986344;28;20039;-64
2021/08/08 11:24:08;;;;;;;2.80;1.05;;;20.90;69.50;;;;;;4979788;28;20093;-65
2021/08/08 11:26:34;;;;;;;2.30;0.90;;;20.90;69.70;;;;;;4975276;28;20035;-64
2021/08/08 11:29:02;;;;;;;1.77;0.80;;;20.90;69.20;;;;;;4983943;28;20030;-65
2021/08/08 11:31:39;;;;;;;2.38;1.08;;;20.90;68.90;;;;;;4986863;28;20402;-65
2021/08/08 11:34:09;;;;;;;1.33;0.75;;;20.90;68.30;;;;;;4985184;28;20038;-65
2021/08/08 11:36:40;;;;;;;2.38;0.60;;;20.80;69.70;;;;;;4982422;28;20049;-65
2021/08/08 11:39:11;;;;;;;1.30;0.70;;;20.80;69.20;;;;;;4983403;28;20046;-65
2021/08/08 11:41:38;;;;;;;1.02;0.60;;;20.80;69.20;;;;;;4980930;28;20069;-64
2021/08/08 11:44:12;;;;;;;1.02;0.50;;;20.90;69.50;;;;;;4982173;28;20038;-65
2021/08/08 11:46:46;;;;;;;1.35;0.60;;;20.90;68.60;;;;;;4982262;28;20035;-65
2021/08/08 11:49:19;;;;;;;1.92;0.70;;;20.90;68.60;;;;;;4983710;28;20033;-65
2021/08/08 11:51:58;;;;;;;1.27;0.63;;;20.90;68.10;;;;;;4986893;28;20030;-65
2021/08/08 11:54:26;;;;;;;3.78;0.40;;;21.00;68.10;;;;;;4980933;28;20073;-65
2021/08/08 11:56:52;;;;;;;2.03;0.43;;;21.00;68.40;;;;;;4983881;28;20498;-64
2021/08/08 11:59:32;;;;;;;0.68;0.45;;;21.10;68.20;;;;;;4987455;28;20070;-65
2021/08/08 12:02:08;;;;;;;1.65;0.47;;;21.20;67.60;;;;;;4983527;28;20104;-64
2021/08/08 12:04:41;;;;;;;3.40;0.60;;;21.20;67.00;;;;;;4994677;28;20036;-64
2021/08/08 12:07:09;;;;;;;1.27;0.65;;;21.30;67.10;;;;;;4982302;28;20031;-64
2021/08/08 12:09:37;;;;;;;0.93;0.50;;;21.30;66.60;;;;;;4985749;28;20510;-64
2021/08/08 12:12:05;;;;;;;2.38;0.50;;;21.40;67.70;;;;;;4977232;28;20039;-65
2021/08/08 12:14:36;;;;;;;1.05;0.57;;;21.50;67.70;;;;;;4985761;28;20042;-65
2021/08/08 12:17:03;;;;;;;2.35;0.57;;;21.60;66.50;;;;;;4984831;28;20037;-64
2021/08/08 12:19:30;;;;;;;2.50;0.60;;;21.70;66.60;;;;;;4985241;28;20625;-64
2021/08/08 12:22:08;;;;;;;1.27;0.45;;;21.70;66.00;;;;;;4985595;28;20116;-64
2021/08/08 12:24:39;;;;;;;1.48;0.43;;;21.70;65.30;;;;;;4993483;28;20068;-64
2021/08/08 12:27:06;;;;;;;1.40;0.50;;;21.70;65.80;;;;;;4995893;28;20030;-65
2021/08/08 12:29:34;;;;;;;2.05;0.50;;;21.70;66.30;;;;;;4977027;28;20590;-64
2021/08/08 12:32:19;;;;;;;3.83;0.60;;;21.80;65.70;;;;;;4981694;28;20046;-64
2021/08/08 12:34:45;;;;;;;2.97;0.63;;;21.80;65.50;;;;;;4993881;28;20038;-65
2021/08/08 12:37:13;;;;;;;1.40;0.80;;;21.80;65.70;;;;;;4982792;28;20035;-64
2021/08/08 12:39:40;;;;;;;2.55;0.70;;;21.80;65.20;;;;;;4982983;28;20034;-64
2021/08/08 12:42:20;;;;;;;1.17;0.63;;;21.70;65.00;;;;;;4984944;28;20043;-64
2021/08/08 12:44:47;;;;;;;1.35;0.50;;;21.70;64.50;;;;;;4984441;28;20129;-64
2021/08/08 12:47:24;;;;;;;1.20;0.43;;;21.70;64.30;;;;;;4980845;28;20038;-64